sensor_id;sensor_type;location;lat;lon;timestamp;P1;durP1;ratioP1;P2;durP2;ratioP2
33644;SDS011;19986;48.190;16.366;2022-09-06T00:01:06;34.10;;;31.98;;
33644;SDS011;19986;48.190;16.366;2022-09-06T00:03:36;34.45;;;32.55;;
33644;SDS011;19986;48.190;16.366;2022-09-06T00:06:07;33.78;;;31.80;;
33644;SDS011;19986;48.190;16.366;2022-09-06T00:08:37;33.08;;;31.17;;
33644;SDS011;19986;48.190;16.366;2022-09-06T00:11:04;35.70;;;33.53;;
33644;SDS011;19986;48.190;16.366;2022-09-06T00:13:30;35.40;;;33.50;;
33644;SDS011;19986;48.190;16.366;2022-09-06T00:16:02;32.92;;;31.00;;
33644;SDS011;19986;48.190;16.366;2022-09-06T00:18:29;33.50;;;31.50;;
33644;SDS011;19986;48.190;16.366;2022-09-06T00:20:56;34.47;;;32.47;;
33644;SDS011;19986;48.190;16.366;2022-09-06T00:23:22;34.30;;;32.40;;
33644;SDS011;19986;48.190;16.366;2022-09-06T00:25:47;33.53;;;31.63;;
33644;SDS011;19986;48.190;16.366;2022-09-06T00:28:13;34.17;;;32.08;;
33644;SDS011;19986;48.190;16.366;2022-09-06T00:30:40;35.40;;;33.25;;
33644;SDS011;19986;48.190;16.366;2022-09-06T00:33:09;34.05;;;31.80;;
33644;SDS011;19986;48.190;16.366;2022-09-06T00:35:34;34.65;;;32.15;;
33644;SDS011;19986;48.190;16.366;2022-09-06T00:38:00;34.10;;;32.00;;
33644;SDS011;19986;48.190;16.366;2022-09-06T00:40:27;33.50;;;31.70;;
33644;SDS011;19986;48.190;16.366;2022-09-06T00:42:54;32.25;;;30.20;;
33644;SDS011;19986;48.190;16.366;2022-09-06T00:45:21;35.55;;;33.20;;
33644;SDS011;19986;48.190;16.366;2022-09-06T00:47:49;35.15;;;32.92;;
33644;SDS011;19986;48.190;16.366;2022-09-06T00:50:16;32.83;;;30.88;;
33644;SDS011;19986;48.190;16.366;2022-09-06T00:52:43;33.63;;;31.58;;
33644;SDS011;19986;48.190;16.366;2022-09-06T00:55:12;33.05;;;31.25;;
33644;SDS011;19986;48.190;16.366;2022-09-06T00:57:39;33.55;;;31.58;;
33644;SDS011;19986;48.190;16.366;2022-09-06T01:00:06;35.20;;;33.10;;
33644;SDS011;19986;48.190;16.366;2022-09-06T01:02:33;32.85;;;30.92;;
33644;SDS011;19986;48.190;16.366;2022-09-06T01:04:59;35.45;;;33.40;;
33644;SDS011;19986;48.190;16.366;2022-09-06T01:07:28;34.30;;;32.30;;
33644;SDS011;19986;48.190;16.366;2022-09-06T01:10:26;34.80;;;32.55;;
33644;SDS011;19986;48.190;16.366;2022-09-06T01:35:16;35.15;;;33.05;;
33644;SDS011;19986;48.190;16.366;2022-09-06T01:38:01;35.22;;;33.25;;
33644;SDS011;19986;48.190;16.366;2022-09-06T01:40:28;35.03;;;32.92;;
33644;SDS011;19986;48.190;16.366;2022-09-06T01:42:54;33.85;;;31.95;;
33644;SDS011;19986;48.190;16.366;2022-09-06T01:45:24;34.42;;;32.45;;
33644;SDS011;19986;48.190;16.366;2022-09-06T01:48:05;34.53;;;32.58;;
33644;SDS011;19986;48.190;16.366;2022-09-06T01:56:42;34.70;;;32.75;;
33644;SDS011;19986;48.190;16.366;2022-09-06T02:01:56;34.38;;;32.45;;
33644;SDS011;19986;48.190;16.366;2022-09-06T02:04:54;34.22;;;32.03;;
33644;SDS011;19986;48.190;16.366;2022-09-06T02:07:30;33.90;;;31.90;;
33644;SDS011;19986;48.190;16.366;2022-09-06T02:10:02;35.30;;;33.10;;
33644;SDS011;19986;48.190;16.366;2022-09-06T02:12:34;35.50;;;33.50;;
33644;SDS011;19986;48.190;16.366;2022-09-06T02:15:08;34.35;;;32.45;;
33644;SDS011;19986;48.190;16.366;2022-09-06T02:17:40;35.10;;;32.85;;
33644;SDS011;19986;48.190;16.366;2022-09-06T02:20:12;35.90;;;33.70;;
33644;SDS011;19986;48.190;16.366;2022-09-06T02:22:49;36.40;;;34.20;;
33644;SDS011;19986;48.190;16.366;2022-09-06T02:25:25;35.28;;;33.28;;
33644;SDS011;19986;48.190;16.366;2022-09-06T02:27:56;34.90;;;33.00;;
33644;SDS011;19986;48.190;16.366;2022-09-06T02:30:22;34.17;;;32.08;;
33644;SDS011;19986;48.190;16.366;2022-09-06T02:32:50;35.67;;;33.63;;
33644;SDS011;19986;48.190;16.366;2022-09-06T02:35:24;34.50;;;32.45;;
33644;SDS011;19986;48.190;16.366;2022-09-06T02:37:50;35.05;;;33.05;;
33644;SDS011;19986;48.190;16.366;2022-09-06T02:40:16;32.42;;;30.52;;
33644;SDS011;19986;48.190;16.366;2022-09-06T02:42:43;35.38;;;33.40;;
33644;SDS011;19986;48.190;16.366;2022-09-06T02:45:09;35.00;;;32.90;;
33644;SDS011;19986;48.190;16.366;2022-09-06T02:47:35;36.67;;;34.47;;
33644;SDS011;19986;48.190;16.366;2022-09-06T02:50:01;35.03;;;32.90;;
33644;SDS011;19986;48.190;16.366;2022-09-06T02:52:27;36.30;;;34.10;;
33644;SDS011;19986;48.190;16.366;2022-09-06T02:54:53;34.40;;;32.40;;
33644;SDS011;19986;48.190;16.366;2022-09-06T02:57:19;37.47;;;35.28;;
33644;SDS011;19986;48.190;16.366;2022-09-06T02:59:45;36.65;;;34.53;;
33644;SDS011;19986;48.190;16.366;2022-09-06T03:02:11;38.35;;;36.00;;
33644;SDS011;19986;48.190;16.366;2022-09-06T03:04:36;36.10;;;33.97;;
33644;SDS011;19986;48.190;16.366;2022-09-06T03:07:02;35.83;;;33.63;;
33644;SDS011;19986;48.190;16.366;2022-09-06T03:09:48;34.50;;;32.45;;
33644;SDS011;19986;48.190;16.366;2022-09-06T03:12:14;37.05;;;34.85;;
33644;SDS011;19986;48.190;16.366;2022-09-06T03:14:40;35.60;;;33.58;;
33644;SDS011;19986;48.190;16.366;2022-09-06T03:17:05;35.72;;;33.72;;
33644;SDS011;19986;48.190;16.366;2022-09-06T03:19:31;35.80;;;33.47;;
33644;SDS011;19986;48.190;16.366;2022-09-06T03:21:57;37.33;;;35.17;;
33644;SDS011;19986;48.190;16.366;2022-09-06T03:24:23;35.08;;;32.95;;
33644;SDS011;19986;48.190;16.366;2022-09-06T03:26:49;34.33;;;32.25;;
33644;SDS011;19986;48.190;16.366;2022-09-06T03:29:15;37.55;;;35.35;;
33644;SDS011;19986;48.190;16.366;2022-09-06T03:31:41;36.00;;;33.90;;
33644;SDS011;19986;48.190;16.366;2022-09-06T03:34:07;36.40;;;34.05;;
33644;SDS011;19986;48.190;16.366;2022-09-06T03:36:33;36.20;;;33.75;;
33644;SDS011;19986;48.190;16.366;2022-09-06T03:38:59;36.25;;;33.80;;
33644;SDS011;19986;48.190;16.366;2022-09-06T03:41:25;34.58;;;32.58;;
33644;SDS011;19986;48.190;16.366;2022-09-06T03:43:50;37.40;;;35.05;;
33644;SDS011;19986;48.190;16.366;2022-09-06T03:46:16;37.05;;;34.72;;
33644;SDS011;19986;48.190;16.366;2022-09-06T03:48:42;36.17;;;33.75;;
33644;SDS011;19986;48.190;16.366;2022-09-06T03:51:09;35.03;;;32.92;;
33644;SDS011;19986;48.190;16.366;2022-09-06T03:53:35;35.60;;;33.40;;
33644;SDS011;19986;48.190;16.366;2022-09-06T03:56:00;34.95;;;32.80;;
33644;SDS011;19986;48.190;16.366;2022-09-06T03:58:30;36.25;;;34.03;;
33644;SDS011;19986;48.190;16.366;2022-09-06T04:01:04;36.45;;;34.00;;
33644;SDS011;19986;48.190;16.366;2022-09-06T04:03:34;35.13;;;32.85;;
33644;SDS011;19986;48.190;16.366;2022-09-06T04:06:01;34.53;;;32.40;;
33644;SDS011;19986;48.190;16.366;2022-09-06T04:08:27;35.45;;;33.20;;
33644;SDS011;19986;48.190;16.366;2022-09-06T04:10:54;34.45;;;32.33;;
33644;SDS011;19986;48.190;16.366;2022-09-06T04:13:21;34.13;;;31.92;;
33644;SDS011;19986;48.190;16.366;2022-09-06T04:15:48;38.35;;;35.85;;
33644;SDS011;19986;48.190;16.366;2022-09-06T04:18:14;38.35;;;35.65;;
33644;SDS011;19986;48.190;16.366;2022-09-06T04:20:40;37.47;;;35.05;;
33644;SDS011;19986;48.190;16.366;2022-09-06T04:23:07;34.58;;;32.55;;
33644;SDS011;19986;48.190;16.366;2022-09-06T04:25:33;36.65;;;34.55;;
33644;SDS011;19986;48.190;16.366;2022-09-06T04:27:59;35.90;;;33.67;;
33644;SDS011;19986;48.190;16.366;2022-09-06T04:30:25;35.25;;;33.05;;
33644;SDS011;19986;48.190;16.366;2022-09-06T04:32:51;35.58;;;33.47;;
33644;SDS011;19986;48.190;16.366;2022-09-06T04:35:16;36.33;;;34.03;;
33644;SDS011;19986;48.190;16.366;2022-09-06T04:37:42;36.42;;;34.17;;
33644;SDS011;19986;48.190;16.366;2022-09-06T04:40:08;37.15;;;35.00;;
33644;SDS011;19986;48.190;16.366;2022-09-06T04:42:34;35.58;;;33.47;;
33644;SDS011;19986;48.190;16.366;2022-09-06T04:45:01;36.33;;;33.70;;
33644;SDS011;19986;48.190;16.366;2022-09-06T04:47:27;35.78;;;33.55;;
33644;SDS011;19986;48.190;16.366;2022-09-06T04:49:54;38.15;;;35.83;;
33644;SDS011;19986;48.190;16.366;2022-09-06T04:52:20;36.88;;;34.58;;
33644;SDS011;19986;48.190;16.366;2022-09-06T04:54:47;36.03;;;33.40;;
33644;SDS011;19986;48.190;16.366;2022-09-06T04:57:13;34.92;;;32.65;;
33644;SDS011;19986;48.190;16.366;2022-09-06T04:59:39;36.35;;;34.10;;
33644;SDS011;19986;48.190;16.366;2022-09-06T05:02:05;38.50;;;35.40;;
33644;SDS011;19986;48.190;16.366;2022-09-06T05:04:31;35.13;;;32.72;;
33644;SDS011;19986;48.190;16.366;2022-09-06T05:07:04;38.00;;;35.35;;
33644;SDS011;19986;48.190;16.366;2022-09-06T05:09:31;36.65;;;34.35;;
33644;SDS011;19986;48.190;16.366;2022-09-06T05:11:57;36.05;;;33.58;;
33644;SDS011;19986;48.190;16.366;2022-09-06T05:14:24;37.58;;;35.17;;
33644;SDS011;19986;48.190;16.366;2022-09-06T05:16:50;37.35;;;34.97;;
33644;SDS011;19986;48.190;16.366;2022-09-06T05:19:17;38.30;;;35.58;;
33644;SDS011;19986;48.190;16.366;2022-09-06T05:21:43;35.72;;;33.03;;
33644;SDS011;19986;48.190;16.366;2022-09-06T05:24:09;37.17;;;34.55;;
33644;SDS011;19986;48.190;16.366;2022-09-06T05:26:35;34.55;;;32.35;;
33644;SDS011;19986;48.190;16.366;2022-09-06T05:29:01;37.53;;;34.75;;
33644;SDS011;19986;48.190;16.366;2022-09-06T05:31:42;35.30;;;33.17;;
33644;SDS011;19986;48.190;16.366;2022-09-06T05:34:16;36.25;;;33.85;;
33644;SDS011;19986;48.190;16.366;2022-09-06T05:36:42;34.83;;;32.53;;
33644;SDS011;19986;48.190;16.366;2022-09-06T05:39:10;40.30;;;37.35;;
33644;SDS011;19986;48.190;16.366;2022-09-06T05:41:36;38.25;;;35.80;;
33644;SDS011;19986;48.190;16.366;2022-09-06T05:44:03;35.97;;;33.30;;
33644;SDS011;19986;48.190;16.366;2022-09-06T05:46:29;36.20;;;34.10;;
33644;SDS011;19986;48.190;16.366;2022-09-06T05:48:56;38.00;;;35.22;;
33644;SDS011;19986;48.190;16.366;2022-09-06T05:51:28;35.53;;;33.22;;
33644;SDS011;19986;48.190;16.366;2022-09-06T05:53:55;37.20;;;34.70;;
33644;SDS011;19986;48.190;16.366;2022-09-06T05:56:21;37.47;;;34.80;;
33644;SDS011;19986;48.190;16.366;2022-09-06T05:58:47;38.30;;;35.78;;
33644;SDS011;19986;48.190;16.366;2022-09-06T06:01:14;37.22;;;34.60;;
33644;SDS011;19986;48.190;16.366;2022-09-06T06:03:40;36.00;;;33.67;;
33644;SDS011;19986;48.190;16.366;2022-09-06T06:06:07;36.35;;;34.15;;
33644;SDS011;19986;48.190;16.366;2022-09-06T06:08:34;37.90;;;35.40;;
33644;SDS011;19986;48.190;16.366;2022-09-06T06:11:00;35.88;;;33.45;;
33644;SDS011;19986;48.190;16.366;2022-09-06T06:13:26;37.10;;;34.55;;
33644;SDS011;19986;48.190;16.366;2022-09-06T06:15:54;37.30;;;34.78;;
33644;SDS011;19986;48.190;16.366;2022-09-06T06:18:20;36.30;;;34.00;;
33644;SDS011;19986;48.190;16.366;2022-09-06T06:20:46;36.72;;;33.80;;
33644;SDS011;19986;48.190;16.366;2022-09-06T06:23:15;36.50;;;34.38;;
33644;SDS011;19986;48.190;16.366;2022-09-06T06:25:41;36.15;;;33.88;;
33644;SDS011;19986;48.190;16.366;2022-09-06T06:28:06;48.17;;;44.70;;
33644;SDS011;19986;48.190;16.366;2022-09-06T06:30:32;35.42;;;33.25;;
33644;SDS011;19986;48.190;16.366;2022-09-06T06:32:58;37.40;;;34.88;;
33644;SDS011;19986;48.190;16.366;2022-09-06T06:35:24;49.95;;;44.70;;
33644;SDS011;19986;48.190;16.366;2022-09-06T06:37:50;35.42;;;33.13;;
33644;SDS011;19986;48.190;16.366;2022-09-06T06:40:16;34.53;;;31.85;;
33644;SDS011;19986;48.190;16.366;2022-09-06T06:42:41;35.03;;;32.05;;
33644;SDS011;19986;48.190;16.366;2022-09-06T06:45:07;38.03;;;35.38;;
33644;SDS011;19986;48.190;16.366;2022-09-06T06:47:33;37.65;;;35.22;;
33644;SDS011;19986;48.190;16.366;2022-09-06T06:49:59;37.13;;;34.60;;
33644;SDS011;19986;48.190;16.366;2022-09-06T06:52:25;36.42;;;33.85;;
33644;SDS011;19986;48.190;16.366;2022-09-06T06:54:51;36.60;;;34.33;;
33644;SDS011;19986;48.190;16.366;2022-09-06T06:57:18;35.28;;;32.72;;
33644;SDS011;19986;48.190;16.366;2022-09-06T06:59:44;36.35;;;33.85;;
33644;SDS011;19986;48.190;16.366;2022-09-06T07:02:11;35.33;;;33.17;;
33644;SDS011;19986;48.190;16.366;2022-09-06T07:04:39;34.75;;;32.40;;
33644;SDS011;19986;48.190;16.366;2022-09-06T07:07:06;36.35;;;33.80;;
33644;SDS011;19986;48.190;16.366;2022-09-06T07:09:32;35.75;;;33.30;;
33644;SDS011;19986;48.190;16.366;2022-09-06T07:11:58;36.38;;;34.08;;
33644;SDS011;19986;48.190;16.366;2022-09-06T07:14:23;37.33;;;34.85;;
33644;SDS011;19986;48.190;16.366;2022-09-06T07:16:49;38.35;;;36.05;;
33644;SDS011;19986;48.190;16.366;2022-09-06T07:19:20;37.17;;;34.75;;
33644;SDS011;19986;48.190;16.366;2022-09-06T07:21:45;36.28;;;33.97;;
33644;SDS011;19986;48.190;16.366;2022-09-06T07:24:11;36.20;;;33.80;;
33644;SDS011;19986;48.190;16.366;2022-09-06T07:26:38;34.72;;;32.53;;
33644;SDS011;19986;48.190;16.366;2022-09-06T07:29:04;34.58;;;32.60;;
33644;SDS011;19986;48.190;16.366;2022-09-06T07:31:31;36.42;;;34.08;;
33644;SDS011;19986;48.190;16.366;2022-09-06T07:33:57;37.30;;;34.90;;
33644;SDS011;19986;48.190;16.366;2022-09-06T07:36:23;37.15;;;34.63;;
33644;SDS011;19986;48.190;16.366;2022-09-06T07:38:49;35.38;;;33.13;;
33644;SDS011;19986;48.190;16.366;2022-09-06T07:41:15;35.75;;;33.15;;
33644;SDS011;19986;48.190;16.366;2022-09-06T07:43:43;34.28;;;32.08;;
33644;SDS011;19986;48.190;16.366;2022-09-06T07:46:13;38.10;;;35.60;;
33644;SDS011;19986;48.190;16.366;2022-09-06T07:48:41;35.03;;;32.65;;
33644;SDS011;19986;48.190;16.366;2022-09-06T07:51:09;37.05;;;34.67;;
33644;SDS011;19986;48.190;16.366;2022-09-06T07:53:41;37.30;;;34.70;;
33644;SDS011;19986;48.190;16.366;2022-09-06T07:56:11;36.92;;;34.47;;
33644;SDS011;19986;48.190;16.366;2022-09-06T07:58:38;34.42;;;32.08;;
33644;SDS011;19986;48.190;16.366;2022-09-06T08:01:18;37.58;;;35.15;;
33644;SDS011;19986;48.190;16.366;2022-09-06T08:03:45;35.95;;;33.47;;
33644;SDS011;19986;48.190;16.366;2022-09-06T08:06:11;36.90;;;34.40;;
33644;SDS011;19986;48.190;16.366;2022-09-06T08:08:43;37.10;;;34.30;;
33644;SDS011;19986;48.190;16.366;2022-09-06T08:11:10;36.63;;;34.28;;
33644;SDS011;19986;48.190;16.366;2022-09-06T08:13:36;38.78;;;35.97;;
33644;SDS011;19986;48.190;16.366;2022-09-06T08:16:06;37.08;;;34.67;;
33644;SDS011;19986;48.190;16.366;2022-09-06T08:18:34;37.78;;;35.08;;
33644;SDS011;19986;48.190;16.366;2022-09-06T08:21:04;38.22;;;35.53;;
33644;SDS011;19986;48.190;16.366;2022-09-06T08:23:43;38.05;;;35.03;;
33644;SDS011;19986;48.190;16.366;2022-09-06T08:26:16;38.72;;;36.13;;
33644;SDS011;19986;48.190;16.366;2022-09-06T08:28:43;38.60;;;35.90;;
33644;SDS011;19986;48.190;16.366;2022-09-06T08:31:10;38.40;;;35.72;;
33644;SDS011;19986;48.190;16.366;2022-09-06T08:33:37;38.95;;;36.28;;
33644;SDS011;19986;48.190;16.366;2022-09-06T08:36:04;39.05;;;36.00;;
33644;SDS011;19986;48.190;16.366;2022-09-06T08:38:31;38.22;;;35.47;;
33644;SDS011;19986;48.190;16.366;2022-09-06T08:43:38;40.58;;;37.70;;
33644;SDS011;19986;48.190;16.366;2022-09-06T08:46:25;38.25;;;35.58;;
33644;SDS011;19986;48.190;16.366;2022-09-06T08:49:02;38.00;;;34.70;;
33644;SDS011;19986;48.190;16.366;2022-09-06T08:59:40;36.47;;;34.20;;
33644;SDS011;19986;48.190;16.366;2022-09-06T09:02:16;39.60;;;36.85;;
33644;SDS011;19986;48.190;16.366;2022-09-06T09:04:46;35.78;;;33.50;;
33644;SDS011;19986;48.190;16.366;2022-09-06T09:07:23;37.08;;;34.75;;
33644;SDS011;19986;48.190;16.366;2022-09-06T09:10:02;38.88;;;36.08;;
33644;SDS011;19986;48.190;16.366;2022-09-06T09:12:37;36.15;;;33.95;;
33644;SDS011;19986;48.190;16.366;2022-09-06T09:15:10;38.70;;;35.97;;
33644;SDS011;19986;48.190;16.366;2022-09-06T09:17:38;36.67;;;34.08;;
33644;SDS011;19986;48.190;16.366;2022-09-06T09:20:03;37.28;;;34.78;;
33644;SDS011;19986;48.190;16.366;2022-09-06T09:22:32;35.95;;;33.55;;
33644;SDS011;19986;48.190;16.366;2022-09-06T09:24:59;39.83;;;37.10;;
33644;SDS011;19986;48.190;16.366;2022-09-06T09:27:26;38.38;;;35.63;;
33644;SDS011;19986;48.190;16.366;2022-09-06T09:35:13;37.78;;;35.47;;
33644;SDS011;19986;48.190;16.366;2022-09-06T09:37:48;37.80;;;35.35;;
33644;SDS011;19986;48.190;16.366;2022-09-06T09:40:33;38.33;;;35.40;;
33644;SDS011;19986;48.190;16.366;2022-09-06T09:43:23;39.58;;;36.88;;
33644;SDS011;19986;48.190;16.366;2022-09-06T09:51:25;37.55;;;35.25;;
33644;SDS011;19986;48.190;16.366;2022-09-06T09:53:54;38.97;;;36.10;;
33644;SDS011;19986;48.190;16.366;2022-09-06T09:57:07;39.03;;;36.30;;
33644;SDS011;19986;48.190;16.366;2022-09-06T10:01:56;40.30;;;37.72;;
33644;SDS011;19986;48.190;16.366;2022-09-06T10:04:31;38.15;;;35.55;;
33644;SDS011;19986;48.190;16.366;2022-09-06T10:07:10;38.25;;;35.65;;
33644;SDS011;19986;48.190;16.366;2022-09-06T10:09:42;36.45;;;33.85;;
33644;SDS011;19986;48.190;16.366;2022-09-06T10:12:13;38.03;;;35.63;;
33644;SDS011;19986;48.190;16.366;2022-09-06T10:14:53;37.90;;;35.22;;
33644;SDS011;19986;48.190;16.366;2022-09-06T10:17:36;36.88;;;34.58;;
33644;SDS011;19986;48.190;16.366;2022-09-06T10:20:11;38.70;;;36.13;;
33644;SDS011;19986;48.190;16.366;2022-09-06T10:22:50;37.05;;;34.65;;
33644;SDS011;19986;48.190;16.366;2022-09-06T10:25:43;38.58;;;35.88;;
33644;SDS011;19986;48.190;16.366;2022-09-06T10:28:28;39.33;;;36.30;;
33644;SDS011;19986;48.190;16.366;2022-09-06T10:50:19;39.45;;;36.30;;
33644;SDS011;19986;48.190;16.366;2022-09-06T10:52:50;36.65;;;33.85;;
33644;SDS011;19986;48.190;16.366;2022-09-06T10:55:17;36.72;;;33.95;;
33644;SDS011;19986;48.190;16.366;2022-09-06T10:57:45;37.63;;;34.72;;
33644;SDS011;19986;48.190;16.366;2022-09-06T11:00:15;37.38;;;34.97;;
33644;SDS011;19986;48.190;16.366;2022-09-06T11:02:46;34.83;;;32.72;;
33644;SDS011;19986;48.190;16.366;2022-09-06T11:05:27;35.88;;;33.33;;
33644;SDS011;19986;48.190;16.366;2022-09-06T11:07:59;37.08;;;34.35;;
33644;SDS011;19986;48.190;16.366;2022-09-06T11:10:32;34.90;;;32.38;;
33644;SDS011;19986;48.190;16.366;2022-09-06T11:13:02;35.13;;;32.97;;
33644;SDS011;19986;48.190;16.366;2022-09-06T11:15:41;33.33;;;31.27;;
33644;SDS011;19986;48.190;16.366;2022-09-06T11:18:18;34.80;;;32.38;;
33644;SDS011;19986;48.190;16.366;2022-09-06T11:26:44;36.15;;;33.95;;
33644;SDS011;19986;48.190;16.366;2022-09-06T11:29:28;36.50;;;33.83;;
33644;SDS011;19986;48.190;16.366;2022-09-06T11:32:00;34.30;;;31.85;;
33644;SDS011;19986;48.190;16.366;2022-09-06T11:34:30;32.92;;;30.98;;
33644;SDS011;19986;48.190;16.366;2022-09-06T11:39:36;34.42;;;32.00;;
33644;SDS011;19986;48.190;16.366;2022-09-06T11:42:07;33.75;;;31.40;;
33644;SDS011;19986;48.190;16.366;2022-09-06T11:53:08;36.10;;;33.78;;
33644;SDS011;19986;48.190;16.366;2022-09-06T11:58:29;34.80;;;31.90;;
33644;SDS011;19986;48.190;16.366;2022-09-06T12:08:46;35.63;;;33.30;;
33644;SDS011;19986;48.190;16.366;2022-09-06T12:11:25;34.03;;;31.77;;
33644;SDS011;19986;48.190;16.366;2022-09-06T12:13:53;35.97;;;33.28;;
33644;SDS011;19986;48.190;16.366;2022-09-06T12:19:38;33.53;;;31.02;;
33644;SDS011;19986;48.190;16.366;2022-09-06T12:31:24;33.42;;;31.30;;
33644;SDS011;19986;48.190;16.366;2022-09-06T12:34:07;36.22;;;33.75;;
33644;SDS011;19986;48.190;16.366;2022-09-06T12:36:36;34.42;;;32.30;;
33644;SDS011;19986;48.190;16.366;2022-09-06T12:39:16;36.97;;;34.17;;
33644;SDS011;19986;48.190;16.366;2022-09-06T12:41:49;33.75;;;31.67;;
33644;SDS011;19986;48.190;16.366;2022-09-06T12:44:30;32.78;;;30.63;;
33644;SDS011;19986;48.190;16.366;2022-09-06T12:47:22;33.85;;;31.55;;
33644;SDS011;19986;48.190;16.366;2022-09-06T12:55:24;33.38;;;31.38;;
33644;SDS011;19986;48.190;16.366;2022-09-06T12:57:54;34.45;;;32.03;;
33644;SDS011;19986;48.190;16.366;2022-09-06T13:00:22;31.70;;;29.65;;
33644;SDS011;19986;48.190;16.366;2022-09-06T13:05:18;31.50;;;29.50;;
33644;SDS011;19986;48.190;16.366;2022-09-06T13:07:45;31.73;;;29.73;;
33644;SDS011;19986;48.190;16.366;2022-09-06T13:10:20;34.10;;;32.10;;
33644;SDS011;19986;48.190;16.366;2022-09-06T13:12:49;32.67;;;30.30;;
33644;SDS011;19986;48.190;16.366;2022-09-06T13:17:53;31.77;;;29.73;;
33644;SDS011;19986;48.190;16.366;2022-09-06T13:20:40;32.88;;;30.75;;
33644;SDS011;19986;48.190;16.366;2022-09-06T13:23:08;33.03;;;30.77;;
33644;SDS011;19986;48.190;16.366;2022-09-06T13:25:46;32.50;;;30.45;;
33644;SDS011;19986;48.190;16.366;2022-09-06T13:28:24;31.92;;;29.92;;
33644;SDS011;19986;48.190;16.366;2022-09-06T13:31:11;33.05;;;31.05;;
33644;SDS011;19986;48.190;16.366;2022-09-06T13:33:39;30.55;;;28.20;;
33644;SDS011;19986;48.190;16.366;2022-09-06T13:41:04;34.17;;;31.58;;
33644;SDS011;19986;48.190;16.366;2022-09-06T13:43:40;32.88;;;30.85;;
33644;SDS011;19986;48.190;16.366;2022-09-06T13:46:09;32.28;;;30.20;;
33644;SDS011;19986;48.190;16.366;2022-09-06T13:48:35;31.35;;;29.45;;
33644;SDS011;19986;48.190;16.366;2022-09-06T13:51:06;32.90;;;30.65;;
33644;SDS011;19986;48.190;16.366;2022-09-06T13:53:33;31.50;;;29.70;;
33644;SDS011;19986;48.190;16.366;2022-09-06T13:56:00;33.72;;;31.70;;
33644;SDS011;19986;48.190;16.366;2022-09-06T13:58:26;31.52;;;29.83;;
33644;SDS011;19986;48.190;16.366;2022-09-06T14:00:53;32.85;;;30.63;;
33644;SDS011;19986;48.190;16.366;2022-09-06T14:03:20;31.90;;;29.73;;
33644;SDS011;19986;48.190;16.366;2022-09-06T14:05:49;32.88;;;30.67;;
33644;SDS011;19986;48.190;16.366;2022-09-06T14:08:15;33.72;;;31.38;;
33644;SDS011;19986;48.190;16.366;2022-09-06T14:10:41;32.45;;;30.55;;
33644;SDS011;19986;48.190;16.366;2022-09-06T14:13:08;33.13;;;30.95;;
33644;SDS011;19986;48.190;16.366;2022-09-06T14:15:34;31.67;;;29.38;;
33644;SDS011;19986;48.190;16.366;2022-09-06T14:18:00;32.47;;;30.48;;
33644;SDS011;19986;48.190;16.366;2022-09-06T14:20:26;32.78;;;30.70;;
33644;SDS011;19986;48.190;16.366;2022-09-06T14:22:52;32.80;;;30.65;;
33644;SDS011;19986;48.190;16.366;2022-09-06T14:25:18;32.33;;;30.02;;
33644;SDS011;19986;48.190;16.366;2022-09-06T14:27:44;30.95;;;29.02;;
33644;SDS011;19986;48.190;16.366;2022-09-06T14:30:12;30.50;;;28.50;;
33644;SDS011;19986;48.190;16.366;2022-09-06T14:32:38;30.95;;;29.15;;
33644;SDS011;19986;48.190;16.366;2022-09-06T14:35:04;32.28;;;30.05;;
33644;SDS011;19986;48.190;16.366;2022-09-06T14:37:32;31.67;;;29.70;;
33644;SDS011;19986;48.190;16.366;2022-09-06T14:39:59;31.52;;;29.42;;
33644;SDS011;19986;48.190;16.366;2022-09-06T14:42:25;31.08;;;28.98;;
33644;SDS011;19986;48.190;16.366;2022-09-06T14:44:52;32.25;;;29.63;;
33644;SDS011;19986;48.190;16.366;2022-09-06T14:47:18;32.20;;;29.90;;
33644;SDS011;19986;48.190;16.366;2022-09-06T14:49:44;32.22;;;30.08;;
33644;SDS011;19986;48.190;16.366;2022-09-06T14:52:10;31.33;;;28.67;;
33644;SDS011;19986;48.190;16.366;2022-09-06T14:54:36;32.58;;;30.15;;
33644;SDS011;19986;48.190;16.366;2022-09-06T14:57:02;32.50;;;30.27;;
33644;SDS011;19986;48.190;16.366;2022-09-06T14:59:27;33.70;;;31.50;;
33644;SDS011;19986;48.190;16.366;2022-09-06T15:01:53;31.08;;;28.92;;
33644;SDS011;19986;48.190;16.366;2022-09-06T15:04:19;31.52;;;29.58;;
33644;SDS011;19986;48.190;16.366;2022-09-06T15:06:46;31.92;;;29.75;;
33644;SDS011;19986;48.190;16.366;2022-09-06T15:09:12;32.28;;;30.27;;
33644;SDS011;19986;48.190;16.366;2022-09-06T15:11:43;33.33;;;30.83;;
33644;SDS011;19986;48.190;16.366;2022-09-06T15:14:16;31.63;;;29.40;;
33644;SDS011;19986;48.190;16.366;2022-09-06T15:16:44;32.83;;;30.35;;
33644;SDS011;19986;48.190;16.366;2022-09-06T15:19:11;32.78;;;30.55;;
33644;SDS011;19986;48.190;16.366;2022-09-06T15:21:38;30.52;;;28.63;;
33644;SDS011;19986;48.190;16.366;2022-09-06T15:24:04;31.25;;;29.02;;
33644;SDS011;19986;48.190;16.366;2022-09-06T15:26:31;31.20;;;28.98;;
33644;SDS011;19986;48.190;16.366;2022-09-06T15:28:57;31.27;;;28.95;;
33644;SDS011;19986;48.190;16.366;2022-09-06T15:31:23;31.02;;;28.77;;
33644;SDS011;19986;48.190;16.366;2022-09-06T15:33:49;31.35;;;29.15;;
33644;SDS011;19986;48.190;16.366;2022-09-06T15:36:16;32.58;;;30.08;;
33644;SDS011;19986;48.190;16.366;2022-09-06T15:38:44;30.77;;;28.65;;
33644;SDS011;19986;48.190;16.366;2022-09-06T15:41:15;31.33;;;29.00;;
33644;SDS011;19986;48.190;16.366;2022-09-06T15:43:41;34.03;;;31.23;;
33644;SDS011;19986;48.190;16.366;2022-09-06T15:46:12;32.28;;;30.27;;
33644;SDS011;19986;48.190;16.366;2022-09-06T15:48:44;32.22;;;29.85;;
33644;SDS011;19986;48.190;16.366;2022-09-06T15:51:12;31.38;;;29.15;;
33644;SDS011;19986;48.190;16.366;2022-09-06T15:53:40;32.40;;;30.02;;
33644;SDS011;19986;48.190;16.366;2022-09-06T15:56:06;31.75;;;29.63;;
33644;SDS011;19986;48.190;16.366;2022-09-06T15:58:33;33.38;;;31.00;;
33644;SDS011;19986;48.190;16.366;2022-09-06T16:03:26;34.80;;;32.38;;
33644;SDS011;19986;48.190;16.366;2022-09-06T16:05:52;34.15;;;31.73;;
33644;SDS011;19986;48.190;16.366;2022-09-06T16:08:18;33.40;;;31.20;;
33644;SDS011;19986;48.190;16.366;2022-09-06T16:10:44;31.73;;;29.33;;
33644;SDS011;19986;48.190;16.366;2022-09-06T16:13:10;29.30;;;27.05;;
33644;SDS011;19986;48.190;16.366;2022-09-06T16:15:35;31.83;;;29.48;;
33644;SDS011;19986;48.190;16.366;2022-09-06T16:18:01;31.65;;;29.67;;
33644;SDS011;19986;48.190;16.366;2022-09-06T16:20:35;32.50;;;30.48;;
33644;SDS011;19986;48.190;16.366;2022-09-06T16:23:02;32.05;;;29.92;;
33644;SDS011;19986;48.190;16.366;2022-09-06T16:25:28;30.38;;;28.50;;
33644;SDS011;19986;48.190;16.366;2022-09-06T16:27:56;32.85;;;30.55;;
33644;SDS011;19986;48.190;16.366;2022-09-06T16:30:21;31.05;;;29.25;;
33644;SDS011;19986;48.190;16.366;2022-09-06T16:32:47;31.40;;;29.58;;